sensor_id;sensor_type;location;lat;lon;timestamp;temperature;humidity
22558;DHT22;11445;53.816;8.902;2023-08-20T00:01:28;18.60;99.90
22558;DHT22;11445;53.816;8.902;2023-08-20T00:03:55;18.60;99.90
22558;DHT22;11445;53.816;8.902;2023-08-20T00:06:23;18.60;99.90
22558;DHT22;11445;53.816;8.902;2023-08-20T00:08:50;18.60;99.90
22558;DHT22;11445;53.816;8.902;2023-08-20T00:11:17;18.60;99.90
22558;DHT22;11445;53.816;8.902;2023-08-20T00:13:44;18.60;99.90
22558;DHT22;11445;53.816;8.902;2023-08-20T00:16:11;18.60;99.90
22558;DHT22;11445;53.816;8.902;2023-08-20T00:18:40;18.50;99.90
22558;DHT22;11445;53.816;8.902;2023-08-20T00:21:07;18.50;99.90
22558;DHT22;11445;53.816;8.902;2023-08-20T00:23:35;18.50;99.90
22558;DHT22;11445;53.816;8.902;2023-08-20T00:26:02;18.50;99.90
22558;DHT22;11445;53.816;8.902;2023-08-20T00:28:29;18.40;99.90
22558;DHT22;11445;53.816;8.902;2023-08-20T00:30:58;18.40;99.90
22558;DHT22;11445;53.816;8.902;2023-08-20T00:33:25;18.40;99.90
22558;DHT22;11445;53.816;8.902;2023-08-20T00:35:53;18.30;99.90
22558;DHT22;11445;53.816;8.902;2023-08-20T00:38:20;18.30;99.90
22558;DHT22;11445;53.816;8.902;2023-08-20T00:40:47;18.30;99.90
22558;DHT22;11445;53.816;8.902;2023-08-20T00:43:14;18.30;99.90
22558;DHT22;11445;53.816;8.902;2023-08-20T00:45:41;18.20;99.90
22558;DHT22;11445;53.816;8.902;2023-08-20T00:48:09;18.20;99.90
22558;DHT22;11445;53.816;8.902;2023-08-20T00:50:36;18.20;99.90
22558;DHT22;11445;53.816;8.902;2023-08-20T00:53:06;18.20;99.90
22558;DHT22;11445;53.816;8.902;2023-08-20T00:55:34;18.20;99.90
22558;DHT22;11445;53.816;8.902;2023-08-20T00:58:02;18.20;99.90
22558;DHT22;11445;53.816;8.902;2023-08-20T01:00:29;18.20;99.90
22558;DHT22;11445;53.816;8.902;2023-08-20T01:02:56;18.20;99.90
22558;DHT22;11445;53.816;8.902;2023-08-20T01:05:23;18.10;99.90
22558;DHT22;11445;53.816;8.902;2023-08-20T01:08:09;18.10;99.90
22558;DHT22;11445;53.816;8.902;2023-08-20T01:10:45;18.10;99.90
22558;DHT22;11445;53.816;8.902;2023-08-20T01:13:17;18.10;99.90
22558;DHT22;11445;53.816;8.902;2023-08-20T01:15:44;18.10;99.90
22558;DHT22;11445;53.816;8.902;2023-08-20T01:18:11;18.10;99.90
22558;DHT22;11445;53.816;8.902;2023-08-20T01:20:41;18.00;99.90
22558;DHT22;11445;53.816;8.902;2023-08-20T01:23:32;18.00;99.90
22558;DHT22;11445;53.816;8.902;2023-08-20T01:26:21;18.00;99.90
22558;DHT22;11445;53.816;8.902;2023-08-20T01:28:51;18.00;99.90
22558;DHT22;11445;53.816;8.902;2023-08-20T01:31:18;17.90;99.90
22558;DHT22;11445;53.816;8.902;2023-08-20T01:33:46;17.90;99.90
22558;DHT22;11445;53.816;8.902;2023-08-20T01:36:13;17.90;99.90
22558;DHT22;11445;53.816;8.902;2023-08-20T01:38:40;17.90;99.90
22558;DHT22;11445;53.816;8.902;2023-08-20T01:41:06;17.90;99.90
22558;DHT22;11445;53.816;8.902;2023-08-20T01:43:33;17.80;99.90
22558;DHT22;11445;53.816;8.902;2023-08-20T01:46:02;17.80;99.90
22558;DHT22;11445;53.816;8.902;2023-08-20T01:48:28;17.80;99.90
22558;DHT22;11445;53.816;8.902;2023-08-20T01:50:55;17.70;99.90
22558;DHT22;11445;53.816;8.902;2023-08-20T01:53:22;17.70;99.90
22558;DHT22;11445;53.816;8.902;2023-08-20T01:55:49;17.70;99.90
22558;DHT22;11445;53.816;8.902;2023-08-20T01:58:16;17.70;99.90
22558;DHT22;11445;53.816;8.902;2023-08-20T02:00:42;17.60;99.90
22558;DHT22;11445;53.816;8.902;2023-08-20T02:03:12;17.70;99.90
22558;DHT22;11445;53.816;8.902;2023-08-20T02:05:39;17.60;99.90
22558;DHT22;11445;53.816;8.902;2023-08-20T02:08:06;17.60;99.90
22558;DHT22;11445;53.816;8.902;2023-08-20T02:10:32;17.60;99.90
22558;DHT22;11445;53.816;8.902;2023-08-20T02:12:59;17.50;99.90
22558;DHT22;11445;53.816;8.902;2023-08-20T02:15:26;17.50;99.90
22558;DHT22;11445;53.816;8.902;2023-08-20T02:17:53;17.50;99.90
22558;DHT22;11445;53.816;8.902;2023-08-20T02:20:21;17.50;99.90
22558;DHT22;11445;53.816;8.902;2023-08-20T02:22:48;17.50;99.90
22558;DHT22;11445;53.816;8.902;2023-08-20T02:25:15;17.60;99.90
22558;DHT22;11445;53.816;8.902;2023-08-20T02:27:42;17.60;99.90
22558;DHT22;11445;53.816;8.902;2023-08-20T02:30:09;17.60;99.90
22558;DHT22;11445;53.816;8.902;2023-08-20T02:32:38;17.50;99.90
22558;DHT22;11445;53.816;8.902;2023-08-20T02:35:06;17.50;99.90
22558;DHT22;11445;53.816;8.902;2023-08-20T02:37:34;17.50;99.90
22558;DHT22;11445;53.816;8.902;2023-08-20T02:40:02;17.50;99.90
22558;DHT22;11445;53.816;8.902;2023-08-20T02:42:30;17.50;99.90
22558;DHT22;11445;53.816;8.902;2023-08-20T02:44:57;17.50;99.90
22558;DHT22;11445;53.816;8.902;2023-08-20T02:47:23;17.40;99.90
22558;DHT22;11445;53.816;8.902;2023-08-20T02:49:51;17.40;99.90
22558;DHT22;11445;53.816;8.902;2023-08-20T02:52:17;17.30;99.90
22558;DHT22;11445;53.816;8.902;2023-08-20T02:54:46;17.30;99.90
22558;DHT22;11445;53.816;8.902;2023-08-20T02:57:12;17.30;99.90
22558;DHT22;11445;53.816;8.902;2023-08-20T02:59:39;17.30;99.90
22558;DHT22;11445;53.816;8.902;2023-08-20T03:02:06;17.30;99.90
22558;DHT22;11445;53.816;8.902;2023-08-20T03:04:33;17.20;99.90
22558;DHT22;11445;53.816;8.902;2023-08-20T03:07:00;17.20;99.90
22558;DHT22;11445;53.816;8.902;2023-08-20T03:09:27;17.20;99.90
22558;DHT22;11445;53.816;8.902;2023-08-20T03:11:55;17.10;99.90
22558;DHT22;11445;53.816;8.902;2023-08-20T03:14:22;17.00;99.90
22558;DHT22;11445;53.816;8.902;2023-08-20T03:16:49;17.10;99.90
22558;DHT22;11445;53.816;8.902;2023-08-20T03:19:16;17.00;99.90
22558;DHT22;11445;53.816;8.902;2023-08-20T03:21:42;17.00;99.90
22558;DHT22;11445;53.816;8.902;2023-08-20T03:24:09;17.00;99.90
22558;DHT22;11445;53.816;8.902;2023-08-20T03:26:36;17.00;99.90
22558;DHT22;11445;53.816;8.902;2023-08-20T03:29:04;16.90;99.90
22558;DHT22;11445;53.816;8.902;2023-08-20T03:31:31;16.80;99.90
22558;DHT22;11445;53.816;8.902;2023-08-20T03:33:58;16.80;99.90
22558;DHT22;11445;53.816;8.902;2023-08-20T03:36:25;16.80;99.90
22558;DHT22;11445;53.816;8.902;2023-08-20T03:38:52;16.70;99.90
22558;DHT22;11445;53.816;8.902;2023-08-20T03:41:19;16.70;99.90
22558;DHT22;11445;53.816;8.902;2023-08-20T03:43:45;16.80;99.90
22558;DHT22;11445;53.816;8.902;2023-08-20T03:46:14;16.70;99.90
22558;DHT22;11445;53.816;8.902;2023-08-20T03:48:42;16.70;99.90
22558;DHT22;11445;53.816;8.902;2023-08-20T03:51:08;16.70;99.90
22558;DHT22;11445;53.816;8.902;2023-08-20T03:53:35;16.80;99.90
22558;DHT22;11445;53.816;8.902;2023-08-20T03:56:02;16.80;99.90
22558;DHT22;11445;53.816;8.902;2023-08-20T03:58:29;16.80;99.90
22558;DHT22;11445;53.816;8.902;2023-08-20T04:00:56;16.80;99.90
22558;DHT22;11445;53.816;8.902;2023-08-20T04:03:24;16.70;99.90
22558;DHT22;11445;53.816;8.902;2023-08-20T04:05:51;16.70;99.90
22558;DHT22;11445;53.816;8.902;2023-08-20T04:08:17;16.60;99.90
22558;DHT22;11445;53.816;8.902;2023-08-20T04:10:44;16.60;99.90
22558;DHT22;11445;53.816;8.902;2023-08-20T04:13:12;16.60;99.90
22558;DHT22;11445;53.816;8.902;2023-08-20T04:15:39;16.50;99.90
22558;DHT22;11445;53.816;8.902;2023-08-20T04:18:06;16.50;99.90
22558;DHT22;11445;53.816;8.902;2023-08-20T04:20:35;16.50;99.90
22558;DHT22;11445;53.816;8.902;2023-08-20T04:23:02;16.50;99.90
22558;DHT22;11445;53.816;8.902;2023-08-20T04:25:29;16.50;99.90
22558;DHT22;11445;53.816;8.902;2023-08-20T04:27:56;16.50;99.90
22558;DHT22;11445;53.816;8.902;2023-08-20T04:30:23;16.50;99.90
22558;DHT22;11445;53.816;8.902;2023-08-20T04:32:50;16.40;99.90
22558;DHT22;11445;53.816;8.902;2023-08-20T04:35:16;16.40;99.90
22558;DHT22;11445;53.816;8.902;2023-08-20T04:37:45;16.40;99.90
22558;DHT22;11445;53.816;8.902;2023-08-20T04:40:11;16.40;99.90
22558;DHT22;11445;53.816;8.902;2023-08-20T04:42:38;16.40;99.90
22558;DHT22;11445;53.816;8.902;2023-08-20T04:45:06;16.40;99.90
22558;DHT22;11445;53.816;8.902;2023-08-20T04:47:33;16.40;99.90
22558;DHT22;11445;53.816;8.902;2023-08-20T04:50:00;16.40;99.90
22558;DHT22;11445;53.816;8.902;2023-08-20T04:52:27;16.40;99.90
22558;DHT22;11445;53.816;8.902;2023-08-20T04:54:56;16.30;99.90
22558;DHT22;11445;53.816;8.902;2023-08-20T04:57:23;16.20;99.90
22558;DHT22;11445;53.816;8.902;2023-08-20T04:59:50;16.30;99.90
22558;DHT22;11445;53.816;8.902;2023-08-20T05:02:16;16.30;99.90
22558;DHT22;11445;53.816;8.902;2023-08-20T05:04:43;16.30;99.90
22558;DHT22;11445;53.816;8.902;2023-08-20T05:07:10;16.30;99.90
22558;DHT22;11445;53.816;8.902;2023-08-20T05:09:37;16.30;99.90
22558;DHT22;11445;53.816;8.902;2023-08-20T05:12:06;16.30;99.90
22558;DHT22;11445;53.816;8.902;2023-08-20T05:14:33;16.30;99.90
22558;DHT22;11445;53.816;8.902;2023-08-20T05:16:59;16.40;99.90
22558;DHT22;11445;53.816;8.902;2023-08-20T05:19:26;16.40;99.90
22558;DHT22;11445;53.816;8.902;2023-08-20T05:21:53;16.40;99.90
22558;DHT22;11445;53.816;8.902;2023-08-20T05:24:24;16.40;99.90
22558;DHT22;11445;53.816;8.902;2023-08-20T05:27:05;16.40;99.90
22558;DHT22;11445;53.816;8.902;2023-08-20T05:29:32;16.40;99.90
22558;DHT22;11445;53.816;8.902;2023-08-20T05:31:59;16.40;99.90
22558;DHT22;11445;53.816;8.902;2023-08-20T05:34:26;16.40;99.90
22558;DHT22;11445;53.816;8.902;2023-08-20T05:36:53;16.50;99.90
22558;DHT22;11445;53.816;8.902;2023-08-20T05:39:20;16.50;99.90
22558;DHT22;11445;53.816;8.902;2023-08-20T05:41:46;16.40;99.90
22558;DHT22;11445;53.816;8.902;2023-08-20T05:44:14;16.40;99.90
22558;DHT22;11445;53.816;8.902;2023-08-20T05:46:42;16.50;99.90
22558;DHT22;11445;53.816;8.902;2023-08-20T05:49:09;16.50;99.90
22558;DHT22;11445;53.816;8.902;2023-08-20T05:51:36;16.50;99.90
22558;DHT22;11445;53.816;8.902;2023-08-20T05:54:03;16.60;99.90
22558;DHT22;11445;53.816;8.902;2023-08-20T05:56:30;16.60;99.90
22558;DHT22;11445;53.816;8.902;2023-08-20T05:58:57;16.60;99.90
22558;DHT22;11445;53.816;8.902;2023-08-20T06:01:25;16.70;99.90
22558;DHT22;11445;53.816;8.902;2023-08-20T06:03:52;16.80;99.90
22558;DHT22;11445;53.816;8.902;2023-08-20T06:06:18;16.80;99.90
22558;DHT22;11445;53.816;8.902;2023-08-20T06:08:45;16.90;99.90
22558;DHT22;11445;53.816;8.902;2023-08-20T06:11:12;17.00;99.90
22558;DHT22;11445;53.816;8.902;2023-08-20T06:13:39;17.10;99.90
22558;DHT22;11445;53.816;8.902;2023-08-20T06:16:07;17.10;99.90
22558;DHT22;11445;53.816;8.902;2023-08-20T06:18:35;17.10;99.90
22558;DHT22;11445;53.816;8.902;2023-08-20T06:21:02;17.20;99.90
22558;DHT22;11445;53.816;8.902;2023-08-20T06:23:29;17.20;99.90
22558;DHT22;11445;53.816;8.902;2023-08-20T06:25:56;17.30;99.90
22558;DHT22;11445;53.816;8.902;2023-08-20T06:28:23;17.40;99.90
22558;DHT22;11445;53.816;8.902;2023-08-20T06:30:49;17.40;99.90
22558;DHT22;11445;53.816;8.902;2023-08-20T06:33:16;17.40;99.90
22558;DHT22;11445;53.816;8.902;2023-08-20T06:35:45;17.50;99.90
22558;DHT22;11445;53.816;8.902;2023-08-20T06:38:11;17.60;99.90
22558;DHT22;11445;53.816;8.902;2023-08-20T06:40:38;17.70;99.90
22558;DHT22;11445;53.816;8.902;2023-08-20T06:43:05;17.70;99.90
22558;DHT22;11445;53.816;8.902;2023-08-20T06:45:32;17.70;99.90
22558;DHT22;11445;53.816;8.902;2023-08-20T06:47:59;17.70;99.90
22558;DHT22;11445;53.816;8.902;2023-08-20T06:50:25;17.80;99.90
22558;DHT22;11445;53.816;8.902;2023-08-20T06:52:53;17.80;99.90
22558;DHT22;11445;53.816;8.902;2023-08-20T06:55:20;17.90;99.90
22558;DHT22;11445;53.816;8.902;2023-08-20T06:57:47;17.90;99.90
22558;DHT22;11445;53.816;8.902;2023-08-20T07:00:14;18.00;99.90
22558;DHT22;11445;53.816;8.902;2023-08-20T07:02:41;18.10;99.90
22558;DHT22;11445;53.816;8.902;2023-08-20T07:05:08;18.20;99.90
22558;DHT22;11445;53.816;8.902;2023-08-20T07:07:35;18.30;99.90
22558;DHT22;11445;53.816;8.902;2023-08-20T07:10:05;18.40;99.90
22558;DHT22;11445;53.816;8.902;2023-08-20T07:12:32;18.50;99.90
22558;DHT22;11445;53.816;8.902;2023-08-20T07:14:58;18.50;99.90
22558;DHT22;11445;53.816;8.902;2023-08-20T07:17:25;18.60;99.90
22558;DHT22;11445;53.816;8.902;2023-08-20T07:19:52;18.60;99.90
22558;DHT22;11445;53.816;8.902;2023-08-20T07:22:19;18.70;99.90
22558;DHT22;11445;53.816;8.902;2023-08-20T07:24:45;18.80;99.90
22558;DHT22;11445;53.816;8.902;2023-08-20T07:27:14;18.90;99.90
22558;DHT22;11445;53.816;8.902;2023-08-20T07:29:41;18.90;99.90
22558;DHT22;11445;53.816;8.902;2023-08-20T07:32:08;19.00;99.90
22558;DHT22;11445;53.816;8.902;2023-08-20T07:34:35;19.10;99.90
22558;DHT22;11445;53.816;8.902;2023-08-20T07:37:02;19.20;99.90
22558;DHT22;11445;53.816;8.902;2023-08-20T07:39:30;19.20;99.90
22558;DHT22;11445;53.816;8.902;2023-08-20T07:41:57;19.30;99.90
22558;DHT22;11445;53.816;8.902;2023-08-20T07:44:25;19.30;99.90
22558;DHT22;11445;53.816;8.902;2023-08-20T07:46:53;19.40;99.90
22558;DHT22;11445;53.816;8.902;2023-08-20T07:49:20;19.40;99.90
22558;DHT22;11445;53.816;8.902;2023-08-20T07:51:47;19.50;99.90
22558;DHT22;11445;53.816;8.902;2023-08-20T07:54:14;19.60;99.90
22558;DHT22;11445;53.816;8.902;2023-08-20T07:56:40;19.60;99.90
22558;DHT22;11445;53.816;8.902;2023-08-20T07:59:07;19.70;99.90
22558;DHT22;11445;53.816;8.902;2023-08-20T08:01:35;19.70;99.90
22558;DHT22;11445;53.816;8.902;2023-08-20T08:04:02;19.80;99.90
22558;DHT22;11445;53.816;8.902;2023-08-20T08:06:29;19.90;99.90
22558;DHT22;11445;53.816;8.902;2023-08-20T08:08:56;19.90;99.90
22558;DHT22;11445;53.816;8.902;2023-08-20T08:11:23;20.00;99.90
22558;DHT22;11445;53.816;8.902;2023-08-20T08:13:50;20.10;99.90
22558;DHT22;11445;53.816;8.902;2023-08-20T08:16:17;20.20;99.90
22558;DHT22;11445;53.816;8.902;2023-08-20T08:18:45;20.20;99.90
22558;DHT22;11445;53.816;8.902;2023-08-20T08:21:12;20.30;99.90
22558;DHT22;11445;53.816;8.902;2023-08-20T08:23:39;20.30;99.90
22558;DHT22;11445;53.816;8.902;2023-08-20T08:26:06;20.40;99.90
22558;DHT22;11445;53.816;8.902;2023-08-20T08:28:33;20.40;99.90
22558;DHT22;11445;53.816;8.902;2023-08-20T08:30:59;20.50;99.90
22558;DHT22;11445;53.816;8.902;2023-08-20T08:33:26;20.50;99.90
22558;DHT22;11445;53.816;8.902;2023-08-20T08:35:55;20.60;99.90
22558;DHT22;11445;53.816;8.902;2023-08-20T08:38:21;20.60;99.90
22558;DHT22;11445;53.816;8.902;2023-08-20T08:40:49;20.70;99.90
22558;DHT22;11445;53.816;8.902;2023-08-20T08:43:16;20.80;99.90
22558;DHT22;11445;53.816;8.902;2023-08-20T08:45:46;20.80;99.90
22558;DHT22;11445;53.816;8.902;2023-08-20T08:48:14;20.80;99.90
22558;DHT22;11445;53.816;8.902;2023-08-20T08:50:41;20.90;99.90
22558;DHT22;11445;53.816;8.902;2023-08-20T08:53:10;20.90;99.90
22558;DHT22;11445;53.816;8.902;2023-08-20T08:55:36;21.00;99.90
22558;DHT22;11445;53.816;8.902;2023-08-20T08:58:04;21.10;99.90
22558;DHT22;11445;53.816;8.902;2023-08-20T09:00:31;21.20;99.90
22558;DHT22;11445;53.816;8.902;2023-08-20T09:02:58;21.30;99.90
22558;DHT22;11445;53.816;8.902;2023-08-20T09:05:24;21.30;99.90
22558;DHT22;11445;53.816;8.902;2023-08-20T09:07:55;21.30;99.90
22558;DHT22;11445;53.816;8.902;2023-08-20T09:10:26;21.40;99.90
22558;DHT22;11445;53.816;8.902;2023-08-20T09:12:54;21.40;99.90
22558;DHT22;11445;53.816;8.902;2023-08-20T09:15:22;21.50;99.90
22558;DHT22;11445;53.816;8.902;2023-08-20T09:17:56;21.60;99.90
22558;DHT22;11445;53.816;8.902;2023-08-20T09:20:34;21.80;99.90
22558;DHT22;11445;53.816;8.902;2023-08-20T09:23:00;21.90;99.90
22558;DHT22;11445;53.816;8.902;2023-08-20T09:25:29;21.90;99.90
22558;DHT22;11445;53.816;8.902;2023-08-20T09:27:55;22.00;99.90
22558;DHT22;11445;53.816;8.902;2023-08-20T09:30:22;22.00;99.90
22558;DHT22;11445;53.816;8.902;2023-08-20T09:33:03;22.00;99.90
22558;DHT22;11445;53.816;8.902;2023-08-20T09:35:30;22.00;99.90
22558;DHT22;11445;53.816;8.902;2023-08-20T09:37:59;22.00;99.90
22558;DHT22;11445;53.816;8.902;2023-08-20T09:40:28;22.10;99.90
22558;DHT22;11445;53.816;8.902;2023-08-20T09:42:56;22.20;99.90
22558;DHT22;11445;53.816;8.902;2023-08-20T09:45:24;22.30;99.90
22558;DHT22;11445;53.816;8.902;2023-08-20T09:47:54;22.30;99.90
22558;DHT22;11445;53.816;8.902;2023-08-20T09:50:22;22.50;99.90
22558;DHT22;11445;53.816;8.902;2023-08-20T09:52:55;22.50;99.90
22558;DHT22;11445;53.816;8.902;2023-08-20T09:55:29;22.60;99.90
22558;DHT22;11445;53.816;8.902;2023-08-20T09:57:56;22.70;99.90
22558;DHT22;11445;53.816;8.902;2023-08-20T10:00:25;22.70;99.90
22558;DHT22;11445;53.816;8.902;2023-08-20T10:02:54;22.80;99.90
22558;DHT22;11445;53.816;8.902;2023-08-20T10:05:22;22.90;99.90
22558;DHT22;11445;53.816;8.902;2023-08-20T10:07:50;22.90;99.90
22558;DHT22;11445;53.816;8.902;2023-08-20T10:10:18;23.00;99.90
22558;DHT22;11445;53.816;8.902;2023-08-20T10:12:46;22.90;99.90
22558;DHT22;11445;53.816;8.902;2023-08-20T10:15:14;23.00;99.90
22558;DHT22;11445;53.816;8.902;2023-08-20T10:17:42;23.00;99.90
22558;DHT22;11445;53.816;8.902;2023-08-20T10:20:13;23.00;99.90
22558;DHT22;11445;53.816;8.902;2023-08-20T10:22:41;23.00;99.90
22558;DHT22;11445;53.816;8.902;2023-08-20T10:25:10;23.10;99.90
22558;DHT22;11445;53.816;8.902;2023-08-20T10:27:38;23.20;99.90
22558;DHT22;11445;53.816;8.902;2023-08-20T10:30:13;23.40;99.90
22558;DHT22;11445;53.816;8.902;2023-08-20T10:32:47;23.40;99.90
22558;DHT22;11445;53.816;8.902;2023-08-20T10:35:16;23.50;99.90
22558;DHT22;11445;53.816;8.902;2023-08-20T10:38:04;23.50;99.90
22558;DHT22;11445;53.816;8.902;2023-08-20T10:40:53;23.50;99.90
22558;DHT22;11445;53.816;8.902;2023-08-20T10:43:27;23.40;99.90
22558;DHT22;11445;53.816;8.902;2023-08-20T10:46:15;23.30;99.90
22558;DHT22;11445;53.816;8.902;2023-08-20T10:48:46;23.40;99.90
22558;DHT22;11445;53.816;8.902;2023-08-20T10:51:15;23.40;99.90
22558;DHT22;11445;53.816;8.902;2023-08-20T10:53:48;23.40;99.90
22558;DHT22;11445;53.816;8.902;2023-08-20T10:56:16;23.50;99.90
22558;DHT22;11445;53.816;8.902;2023-08-20T10:58:45;23.50;99.90
22558;DHT22;11445;53.816;8.902;2023-08-20T11:01:18;23.50;99.90
22558;DHT22;11445;53.816;8.902;2023-08-20T11:03:45;23.50;99.90
22558;DHT22;11445;53.816;8.902;2023-08-20T11:06:14;23.50;99.90
22558;DHT22;11445;53.816;8.902;2023-08-20T11:08:42;23.60;99.90
22558;DHT22;11445;53.816;8.902;2023-08-20T11:11:11;23.60;99.90
22558;DHT22;11445;53.816;8.902;2023-08-20T11:13:38;23.60;99.90
22558;DHT22;11445;53.816;8.902;2023-08-20T11:16:05;23.60;99.90
22558;DHT22;11445;53.816;8.902;2023-08-20T11:18:34;23.60;99.90
22558;DHT22;11445;53.816;8.902;2023-08-20T11:21:01;23.60;99.90
22558;DHT22;11445;53.816;8.902;2023-08-20T11:23:29;23.70;99.90
22558;DHT22;11445;53.816;8.902;2023-08-20T11:25:57;23.90;99.90
22558;DHT22;11445;53.816;8.902;2023-08-20T11:28:25;23.90;99.90
22558;DHT22;11445;53.816;8.902;2023-08-20T11:30:53;24.00;99.90
22558;DHT22;11445;53.816;8.902;2023-08-20T11:33:21;24.10;99.90
22558;DHT22;11445;53.816;8.902;2023-08-20T11:35:49;24.00;99.90
22558;DHT22;11445;53.816;8.902;2023-08-20T11:38:16;24.00;99.90
22558;DHT22;11445;53.816;8.902;2023-08-20T11:40:43;24.00;99.90
22558;DHT22;11445;53.816;8.902;2023-08-20T11:43:10;23.90;99.90
22558;DHT22;11445;53.816;8.902;2023-08-20T11:45:47;23.90;99.90
22558;DHT22;11445;53.816;8.902;2023-08-20T11:48:15;24.10;99.90
22558;DHT22;11445;53.816;8.902;2023-08-20T11:50:42;24.10;99.90
22558;DHT22;11445;53.816;8.902;2023-08-20T11:53:11;24.20;99.90
22558;DHT22;11445;53.816;8.902;2023-08-20T11:55:39;24.30;99.90
22558;DHT22;11445;53.816;8.902;2023-08-20T11:58:09;24.30;99.90
22558;DHT22;11445;53.816;8.902;2023-08-20T12:00:36;24.40;99.90
22558;DHT22;11445;53.816;8.902;2023-08-20T12:03:03;24.40;99.90
22558;DHT22;11445;53.816;8.902;2023-08-20T12:05:30;24.20;99.90
22558;DHT22;11445;53.816;8.902;2023-08-20T12:07:58;24.20;99.90
22558;DHT22;11445;53.816;8.902;2023-08-20T12:10:28;24.20;99.90
22558;DHT22;11445;53.816;8.902;2023-08-20T12:12:56;24.20;99.90
22558;DHT22;11445;53.816;8.902;2023-08-20T12:15:24;24.20;99.90
22558;DHT22;11445;53.816;8.902;2023-08-20T12:18:01;24.20;99.90
22558;DHT22;11445;53.816;8.902;2023-08-20T12:20:30;24.30;99.90
22558;DHT22;11445;53.816;8.902;2023-08-20T12:23:02;24.30;99.90
22558;DHT22;11445;53.816;8.902;2023-08-20T12:25:32;24.30;99.90
22558;DHT22;11445;53.816;8.902;2023-08-20T12:28:01;24.30;99.90
22558;DHT22;11445;53.816;8.902;2023-08-20T12:30:29;24.20;99.90
22558;DHT22;11445;53.816;8.902;2023-08-20T12:32:55;24.30;99.90
22558;DHT22;11445;53.816;8.902;2023-08-20T12:35:22;24.20;99.90
22558;DHT22;11445;53.816;8.902;2023-08-20T12:37:49;24.20;99.90
22558;DHT22;11445;53.816;8.902;2023-08-20T12:40:16;24.20;99.90
22558;DHT22;11445;53.816;8.902;2023-08-20T12:42:44;24.30;99.90
22558;DHT22;11445;53.816;8.902;2023-08-20T12:45:11;24.40;99.90
22558;DHT22;11445;53.816;8.902;2023-08-20T12:47:39;24.40;99.90
22558;DHT22;11445;53.816;8.902;2023-08-20T12:50:06;24.50;99.90
22558;DHT22;11445;53.816;8.902;2023-08-20T12:52:33;24.50;99.90
22558;DHT22;11445;53.816;8.902;2023-08-20T12:55:00;24.60;99.90
22558;DHT22;11445;53.816;8.902;2023-08-20T12:57:28;24.70;99.90
22558;DHT22;11445;53.816;8.902;2023-08-20T12:59:56;24.70;99.90
22558;DHT22;11445;53.816;8.902;2023-08-20T13:02:24;24.80;99.90
22558;DHT22;11445;53.816;8.902;2023-08-20T13:04:51;24.60;99.90
22558;DHT22;11445;53.816;8.902;2023-08-20T13:07:18;24.50;99.90
22558;DHT22;11445;53.816;8.902;2023-08-20T13:09:46;24.40;99.90
22558;DHT22;11445;53.816;8.902;2023-08-20T13:12:13;24.30;99.90
22558;DHT22;11445;53.816;8.902;2023-08-20T13:14:41;24.30;99.90
22558;DHT22;11445;53.816;8.902;2023-08-20T13:17:10;24.10;99.90
22558;DHT22;11445;53.816;8.902;2023-08-20T13:19:37;23.90;99.90
22558;DHT22;11445;53.816;8.902;2023-08-20T13:22:04;23.70;99.90
22558;DHT22;11445;53.816;8.902;2023-08-20T13:24:31;23.60;99.90
22558;DHT22;11445;53.816;8.902;2023-08-20T13:26:58;23.50;99.90
22558;DHT22;11445;53.816;8.902;2023-08-20T13:29:25;23.50;99.90
22558;DHT22;11445;53.816;8.902;2023-08-20T13:31:52;23.40;99.90
22558;DHT22;11445;53.816;8.902;2023-08-20T13:34:20;23.40;99.90
22558;DHT22;11445;53.816;8.902;2023-08-20T13:36:47;23.40;99.90
22558;DHT22;11445;53.816;8.902;2023-08-20T13:39:14;23.30;99.90
22558;DHT22;11445;53.816;8.902;2023-08-20T13:41:41;23.20;99.90
22558;DHT22;11445;53.816;8.902;2023-08-20T13:44:08;23.10;99.90
22558;DHT22;11445;53.816;8.902;2023-08-20T13:46:35;23.00;99.90
22558;DHT22;11445;53.816;8.902;2023-08-20T13:49:02;22.90;99.90
22558;DHT22;11445;53.816;8.902;2023-08-20T13:51:31;22.80;99.90
22558;DHT22;11445;53.816;8.902;2023-08-20T13:53:57;22.90;99.90
22558;DHT22;11445;53.816;8.902;2023-08-20T13:56:24;22.90;99.90
22558;DHT22;11445;53.816;8.902;2023-08-20T13:58:52;22.80;99.90
22558;DHT22;11445;53.816;8.902;2023-08-20T14:01:19;22.90;99.90
22558;DHT22;11445;53.816;8.902;2023-08-20T14:03:45;22.90;99.90
22558;DHT22;11445;53.816;8.902;2023-08-20T14:06:12;22.90;99.90
22558;DHT22;11445;53.816;8.902;2023-08-20T14:08:40;22.90;99.90
22558;DHT22;11445;53.816;8.902;2023-08-20T14:11:07;22.90;99.90
22558;DHT22;11445;53.816;8.902;2023-08-20T14:13:34;22.90;99.90
22558;DHT22;11445;53.816;8.902;2023-08-20T14:16:02;22.90;99.90
22558;DHT22;11445;53.816;8.902;2023-08-20T14:18:29;22.90;99.90
22558;DHT22;11445;53.816;8.902;2023-08-20T14:20:56;22.90;99.90
22558;DHT22;11445;53.816;8.902;2023-08-20T14:23:23;22.90;99.90
22558;DHT22;11445;53.816;8.902;2023-08-20T14:25:51;22.90;99.90
22558;DHT22;11445;53.816;8.902;2023-08-20T14:28:20;23.00;99.90
22558;DHT22;11445;53.816;8.902;2023-08-20T14:30:47;22.90;99.90
22558;DHT22;11445;53.816;8.902;2023-08-20T14:33:14;22.80;99.90
22558;DHT22;11445;53.816;8.902;2023-08-20T14:35:41;22.80;99.90
22558;DHT22;11445;53.816;8.902;2023-08-20T14:38:08;22.70;99.90
22558;DHT22;11445;53.816;8.902;2023-08-20T14:40:36;22.70;99.90
22558;DHT22;11445;53.816;8.902;2023-08-20T14:43:06;22.70;99.90
22558;DHT22;11445;53.816;8.902;2023-08-20T14:45:33;22.60;99.90
22558;DHT22;11445;53.816;8.902;2023-08-20T14:48:00;22.60;99.90
22558;DHT22;11445;53.816;8.902;2023-08-20T14:50:28;22.60;99.90
22558;DHT22;11445;53.816;8.902;2023-08-20T14:52:55;22.70;99.90
22558;DHT22;11445;53.816;8.902;2023-08-20T14:55:21;22.70;99.90
22558;DHT22;11445;53.816;8.902;2023-08-20T14:57:48;22.70;99.90
22558;DHT22;11445;53.816;8.902;2023-08-20T15:00:16;22.70;99.90
22558;DHT22;11445;53.816;8.902;2023-08-20T15:02:44;22.70;99.90
22558;DHT22;11445;53.816;8.902;2023-08-20T15:05:11;22.70;99.90
22558;DHT22;11445;53.816;8.902;2023-08-20T15:07:38;22.70;99.90
22558;DHT22;11445;53.816;8.902;2023-08-20T15:10:06;22.70;99.90
22558;DHT22;11445;53.816;8.902;2023-08-20T15:12:33;22.60;99.90
22558;DHT22;11445;53.816;8.902;2023-08-20T15:15:00;22.60;99.90
22558;DHT22;11445;53.816;8.902;2023-08-20T15:17:30;22.50;99.90
22558;DHT22;11445;53.816;8.902;2023-08-20T15:19:57;22.60;99.90
22558;DHT22;11445;53.816;8.902;2023-08-20T15:22:24;22.60;99.90
22558;DHT22;11445;53.816;8.902;2023-08-20T15:24:51;22.60;99.90
22558;DHT22;11445;53.816;8.902;2023-08-20T15:27:17;22.60;99.90
22558;DHT22;11445;53.816;8.902;2023-08-20T15:29:44;22.50;99.90
22558;DHT22;11445;53.816;8.902;2023-08-20T15:32:11;22.40;99.90
22558;DHT22;11445;53.816;8.902;2023-08-20T15:34:40;22.30;99.90